createdAt,value
2022-10-29T00:00:59.000Z,0
2022-10-29T00:06:28.000Z,0
2022-10-29T00:07:46.000Z,0
2022-10-29T00:09:13.000Z,0
2022-10-29T00:14:42.000Z,0
2022-10-29T00:17:27.000Z,0
2022-10-29T00:20:11.000Z,0
2022-10-29T00:22:56.000Z,0
2022-10-29T00:25:41.000Z,0
2022-10-29T00:31:10.000Z,0
2022-10-29T00:33:55.000Z,0
2022-10-29T00:35:12.000Z,0
2022-10-29T00:36:39.000Z,0
2022-10-29T00:39:24.000Z,0
2022-10-29T00:42:08.000Z,0
2022-10-29T00:44:53.000Z,0
2022-10-29T00:47:38.000Z,0
2022-10-29T00:50:22.000Z,0
2022-10-29T00:53:07.000Z,0
2022-10-29T00:55:52.000Z,0
2022-10-29T00:58:36.000Z,0
2022-10-29T01:01:21.000Z,0
2022-10-29T01:02:39.000Z,0
2022-10-29T01:04:06.000Z,0
2022-10-29T01:06:50.000Z,0
2022-10-29T01:12:36.000Z,0
2022-10-29T01:15:21.000Z,0
2022-10-29T01:20:50.000Z,0
2022-10-29T01:23:34.000Z,0
2022-10-29T01:26:19.000Z,0
2022-10-29T01:29:04.000Z,0
2022-10-29T01:30:21.000Z,0
2022-10-29T01:31:48.000Z,0
2022-10-29T01:34:33.000Z,0
2022-10-29T01:37:18.000Z,0
2022-10-29T01:40:02.000Z,0
2022-10-29T01:42:47.000Z,0
2022-10-29T01:45:32.000Z,0
2022-10-29T01:48:16.000Z,0
2022-10-29T01:51:01.000Z,0
2022-10-29T01:53:46.000Z,0
2022-10-29T01:56:30.000Z,0
2022-10-29T01:57:48.000Z,0
2022-10-29T01:59:15.000Z,0
2022-10-29T02:01:59.000Z,0
2022-10-29T02:07:29.000Z,0
2022-10-29T02:10:13.000Z,0
2022-10-29T02:12:58.000Z,0
2022-10-29T02:15:43.000Z,0
2022-10-29T02:18:27.000Z,0
2022-10-29T02:21:12.000Z,0
2022-10-29T02:23:57.000Z,0
2022-10-29T02:25:14.000Z,0
2022-10-29T02:26:41.000Z,0
2022-10-29T02:29:42.000Z,0
2022-10-29T02:32:27.000Z,0
2022-10-29T02:35:11.000Z,0
2022-10-29T02:37:56.000Z,0
2022-10-29T02:40:41.000Z,0
2022-10-29T02:43:25.000Z,0
2022-10-29T02:46:10.000Z,0
2022-10-29T02:48:55.000Z,0
2022-10-29T02:51:39.000Z,0
2022-10-29T02:52:57.000Z,0
2022-10-29T02:54:24.000Z,0
2022-10-29T02:57:25.000Z,0
2022-10-29T03:00:10.000Z,0
2022-10-29T03:02:54.000Z,0
2022-10-29T03:05:39.000Z,0
2022-10-29T03:08:24.000Z,0
2022-10-29T03:11:08.000Z,0
2022-10-29T03:13:53.000Z,0
2022-10-29T03:16:37.000Z,0
2022-10-29T03:19:22.000Z,0
2022-10-29T03:22:07.000Z,0
2022-10-29T03:24:51.000Z,0
2022-10-29T03:27:36.000Z,0
2022-10-29T03:30:21.000Z,0
2022-10-29T03:33:05.000Z,0
2022-10-29T03:35:50.000Z,0
2022-10-29T03:38:35.000Z,0
2022-10-29T03:41:19.000Z,0
2022-10-29T03:44:04.000Z,0
2022-10-29T03:46:49.000Z,0
2022-10-29T03:48:06.000Z,0
2022-10-29T03:52:18.000Z,0
2022-10-29T03:55:02.000Z,0
2022-10-29T03:57:47.000Z,0
2022-10-29T04:03:16.000Z,0
2022-10-29T04:06:01.000Z,0
2022-10-29T04:08:46.000Z,0
2022-10-29T04:11:30.000Z,0
2022-10-29T04:14:15.000Z,0
2022-10-29T04:15:33.000Z,0
2022-10-29T04:17:00.000Z,0
2022-10-29T04:19:44.000Z,0
2022-10-29T04:22:45.000Z,0
2022-10-29T04:25:30.000Z,0
2022-10-29T04:28:15.000Z,0
2022-10-29T04:30:59.000Z,0
2022-10-29T04:33:44.000Z,0
2022-10-29T04:36:28.000Z,0
2022-10-29T04:39:13.000Z,0
2022-10-29T04:41:58.000Z,0
2022-10-29T04:43:15.000Z,0
2022-10-29T04:44:42.000Z,0
2022-10-29T04:47:27.000Z,0
2022-10-29T04:50:12.000Z,0
2022-10-29T04:52:56.000Z,0
2022-10-29T04:55:41.000Z,0
2022-10-29T05:01:10.000Z,0
2022-10-29T05:03:55.000Z,0
2022-10-29T05:06:39.000Z,0
2022-10-29T05:09:24.000Z,0
2022-10-29T05:10:42.000Z,0
2022-10-29T05:12:09.000Z,0
2022-10-29T05:14:53.000Z,0
2022-10-29T05:17:38.000Z,0
2022-10-29T05:20:23.000Z,0
2022-10-29T05:23:07.000Z,0
2022-10-29T05:25:52.000Z,0
2022-10-29T05:28:37.000Z,0
2022-10-29T05:31:21.000Z,0
2022-10-29T05:34:06.000Z,0
2022-10-29T05:36:51.000Z,0
2022-10-29T05:38:08.000Z,0
2022-10-29T05:39:35.000Z,0
2022-10-29T05:42:20.000Z,0
2022-10-29T05:45:04.000Z,0
2022-10-29T05:47:49.000Z,0
2022-10-29T05:50:34.000Z,0
2022-10-29T05:53:18.000Z,0
2022-10-29T05:56:03.000Z,0
2022-10-29T05:58:48.000Z,0
2022-10-29T06:01:32.000Z,0
2022-10-29T06:04:17.000Z,0
2022-10-29T06:05:35.000Z,0
2022-10-29T06:07:02.000Z,0
2022-10-29T06:09:46.000Z,0
2022-10-29T06:12:31.000Z,0
2022-10-29T06:15:15.000Z,0
2022-10-29T06:18:00.000Z,0
2022-10-29T06:20:45.000Z,0
2022-10-29T06:23:29.000Z,0
2022-10-29T06:26:14.000Z,0
2022-10-29T06:28:59.000Z,5
2022-10-29T06:31:43.000Z,5
2022-10-29T06:33:01.000Z,5
2022-10-29T06:34:28.000Z,5
2022-10-29T06:37:13.000Z,5
2022-10-29T06:39:57.000Z,11
2022-10-29T06:45:27.000Z,16
2022-10-29T06:48:11.000Z,22
2022-10-29T06:50:56.000Z,22
2022-10-29T06:53:40.000Z,22
2022-10-29T06:56:25.000Z,22
2022-10-29T06:59:10.000Z,22
2022-10-29T07:00:28.000Z,16
2022-10-29T07:01:54.000Z,22
2022-10-29T07:04:39.000Z,28
2022-10-29T07:07:24.000Z,39
2022-10-29T07:10:08.000Z,56
2022-10-29T07:12:53.000Z,61
2022-10-29T07:15:38.000Z,78
2022-10-29T07:18:22.000Z,95
2022-10-29T07:21:07.000Z,118
2022-10-29T07:23:52.000Z,135
2022-10-29T07:26:36.000Z,123
2022-10-29T07:27:54.000Z,73
2022-10-29T07:29:21.000Z,50
2022-10-29T07:32:05.000Z,45
2022-10-29T07:34:50.000Z,39
2022-10-29T07:37:35.000Z,39
2022-10-29T07:40:19.000Z,33
2022-10-29T07:43:04.000Z,33
2022-10-29T07:45:49.000Z,33
2022-10-29T07:48:33.000Z,39
2022-10-29T07:51:18.000Z,56
2022-10-29T07:54:03.000Z,67
2022-10-29T07:56:47.000Z,67
2022-10-29T07:59:32.000Z,67
2022-10-29T08:02:16.000Z,61
2022-10-29T08:05:01.000Z,61
2022-10-29T08:07:46.000Z,50
2022-10-29T08:10:30.000Z,61
2022-10-29T08:13:15.000Z,67
2022-10-29T08:16:00.000Z,101
2022-10-29T08:18:44.000Z,95
2022-10-29T08:21:29.000Z,78
2022-10-29T08:22:47.000Z,84
2022-10-29T08:24:14.000Z,78
2022-10-29T08:26:58.000Z,84
2022-10-29T08:29:43.000Z,101
2022-10-29T08:32:28.000Z,123
2022-10-29T08:35:12.000Z,151
2022-10-29T08:37:57.000Z,140
2022-10-29T08:40:41.000Z,123
2022-10-29T08:43:26.000Z,129
2022-10-29T08:46:11.000Z,146
2022-10-29T08:48:55.000Z,151
2022-10-29T08:50:13.000Z,185
2022-10-29T08:51:40.000Z,219
2022-10-29T08:54:25.000Z,281
2022-10-29T08:57:09.000Z,742
2022-10-29T08:59:54.000Z,984
2022-10-29T09:02:39.000Z,1085
2022-10-29T09:05:23.000Z,421
2022-10-29T09:08:08.000Z,264
2022-10-29T09:10:52.000Z,1029
2022-10-29T09:13:37.000Z,568
2022-10-29T09:16:22.000Z,253
2022-10-29T09:17:40.000Z,225
2022-10-29T09:19:06.000Z,208
2022-10-29T09:21:51.000Z,219
2022-10-29T09:24:36.000Z,180
2022-10-29T09:30:05.000Z,196
2022-10-29T09:35:34.000Z,320
2022-10-29T09:38:19.000Z,270
2022-10-29T09:41:04.000Z,241
2022-10-29T09:43:48.000Z,275
2022-10-29T09:45:06.000Z,624
2022-10-29T09:46:33.000Z,691
2022-10-29T09:49:17.000Z,703
2022-10-29T09:52:02.000Z,534
2022-10-29T09:54:47.000Z,455
2022-10-29T10:00:16.000Z,303
2022-10-29T10:03:01.000Z,213
2022-10-29T10:05:45.000Z,185
2022-10-29T10:08:30.000Z,180
2022-10-29T10:11:15.000Z,185
2022-10-29T10:12:33.000Z,219
2022-10-29T10:13:59.000Z,264
2022-10-29T10:16:44.000Z,399
2022-10-29T10:19:29.000Z,360
2022-10-29T10:22:13.000Z,354
2022-10-29T10:24:58.000Z,348
2022-10-29T10:27:42.000Z,433
2022-10-29T10:30:27.000Z,388
2022-10-29T10:33:12.000Z,1057
2022-10-29T10:35:56.000Z,410
2022-10-29T10:38:41.000Z,360
2022-10-29T10:39:59.000Z,270
2022-10-29T10:41:26.000Z,320
2022-10-29T10:44:10.000Z,309
2022-10-29T10:46:55.000Z,258
2022-10-29T10:49:40.000Z,258
2022-10-29T10:52:24.000Z,315
2022-10-29T10:55:09.000Z,230
2022-10-29T10:57:53.000Z,202
2022-10-29T11:00:38.000Z,202
2022-10-29T11:06:07.000Z,281
2022-10-29T11:07:25.000Z,275
2022-10-29T11:08:52.000Z,281
2022-10-29T11:11:37.000Z,286
2022-10-29T11:14:21.000Z,247
2022-10-29T11:17:06.000Z,258
2022-10-29T11:19:51.000Z,298
2022-10-29T11:22:35.000Z,309
2022-10-29T11:25:20.000Z,360
2022-10-29T11:28:05.000Z,331
2022-10-29T11:30:49.000Z,281
2022-10-29T11:33:34.000Z,258
2022-10-29T11:34:52.000Z,236
2022-10-29T11:36:18.000Z,236
2022-10-29T11:39:03.000Z,202
2022-10-29T11:41:48.000Z,191
2022-10-29T11:47:17.000Z,174
2022-10-29T11:50:02.000Z,185
2022-10-29T11:52:46.000Z,185
2022-10-29T11:55:31.000Z,196
2022-10-29T12:01:00.000Z,236
2022-10-29T12:02:18.000Z,202
2022-10-29T12:03:45.000Z,196
2022-10-29T12:06:29.000Z,191
2022-10-29T12:09:14.000Z,202
2022-10-29T12:11:59.000Z,219
2022-10-29T12:14:43.000Z,140
2022-10-29T12:17:28.000Z,112
2022-10-29T12:20:13.000Z,185
2022-10-29T12:22:57.000Z,219
2022-10-29T12:25:42.000Z,163
2022-10-29T12:28:27.000Z,140
2022-10-29T12:29:45.000Z,140
2022-10-29T12:31:11.000Z,135
2022-10-29T12:36:41.000Z,163
2022-10-29T12:42:10.000Z,180
2022-10-29T12:44:54.000Z,106
2022-10-29T12:47:39.000Z,90
2022-10-29T12:50:24.000Z,118
2022-10-29T12:53:08.000Z,135
2022-10-29T12:55:53.000Z,225
2022-10-29T12:57:11.000Z,213
2022-10-29T13:01:22.000Z,208
2022-10-29T13:04:07.000Z,191
2022-10-29T13:09:36.000Z,123
2022-10-29T13:12:21.000Z,106
2022-10-29T13:15:06.000Z,106
2022-10-29T13:17:50.000Z,135
2022-10-29T13:20:35.000Z,78
2022-10-29T13:23:19.000Z,73
2022-10-29T13:24:37.000Z,112
2022-10-29T13:26:04.000Z,118
2022-10-29T13:28:49.000Z,129
2022-10-29T13:34:18.000Z,146
2022-10-29T13:42:16.000Z,90
2022-10-29T13:45:00.000Z,78
2022-10-29T13:47:45.000Z,90
2022-10-29T13:50:29.000Z,112
2022-10-29T13:52:04.000Z,95
2022-10-29T13:56:23.000Z,106
2022-10-29T13:59:08.000Z,90
2022-10-29T14:01:52.000Z,118
2022-10-29T14:04:37.000Z,101
2022-10-29T14:07:22.000Z,73
2022-10-29T14:10:06.000Z,61
2022-10-29T14:12:51.000Z,67
2022-10-29T14:15:35.000Z,84
2022-10-29T14:18:20.000Z,61
2022-10-29T14:19:38.000Z,84
2022-10-29T14:23:49.000Z,78
2022-10-29T14:26:34.000Z,90
2022-10-29T14:34:48.000Z,61
2022-10-29T14:37:33.000Z,56
2022-10-29T14:40:17.000Z,45
2022-10-29T14:43:02.000Z,39
2022-10-29T14:45:47.000Z,39
2022-10-29T14:47:04.000Z,33
2022-10-29T14:48:31.000Z,33
2022-10-29T14:51:16.000Z,33
2022-10-29T14:59:13.000Z,39
2022-10-29T15:01:58.000Z,50
2022-10-29T15:04:43.000Z,50
2022-10-29T15:07:27.000Z,50
2022-10-29T15:10:12.000Z,45
2022-10-29T15:12:57.000Z,39
2022-10-29T15:14:31.000Z,33
2022-10-29T15:15:48.000Z,33
2022-10-29T15:18:33.000Z,33
2022-10-29T15:21:18.000Z,28
2022-10-29T15:26:47.000Z,22
2022-10-29T15:34:44.000Z,11
2022-10-29T15:37:29.000Z,11
2022-10-29T15:40:14.000Z,11
2022-10-29T15:41:57.000Z,5
2022-10-29T15:43:15.000Z,5
2022-10-29T15:48:44.000Z,5
2022-10-29T15:51:29.000Z,5
2022-10-29T15:54:13.000Z,5
2022-10-29T15:59:43.000Z,0
2022-10-29T16:02:27.000Z,0
2022-10-29T16:05:12.000Z,0
2022-10-29T16:09:24.000Z,0
2022-10-29T16:10:42.000Z,0
2022-10-29T16:13:43.000Z,0
2022-10-29T16:16:27.000Z,0
2022-10-29T16:19:12.000Z,0
2022-10-29T16:21:56.000Z,0
2022-10-29T16:24:41.000Z,0
2022-10-29T16:27:26.000Z,0
2022-10-29T16:30:10.000Z,0
2022-10-29T16:32:55.000Z,0
2022-10-29T16:35:40.000Z,0
2022-10-29T16:36:57.000Z,0
2022-10-29T16:38:24.000Z,0
2022-10-29T16:41:25.000Z,0
2022-10-29T16:44:10.000Z,0
2022-10-29T16:46:55.000Z,0
2022-10-29T16:49:39.000Z,0
2022-10-29T16:52:24.000Z,0
2022-10-29T16:55:09.000Z,0
2022-10-29T16:57:53.000Z,0
2022-10-29T17:00:38.000Z,0
2022-10-29T17:03:22.000Z,0
2022-10-29T17:04:40.000Z,0
2022-10-29T17:06:07.000Z,0
2022-10-29T17:11:36.000Z,0
2022-10-29T17:14:21.000Z,0
2022-10-29T17:17:06.000Z,0
2022-10-29T17:19:50.000Z,0
2022-10-29T17:22:35.000Z,0
2022-10-29T17:25:20.000Z,0
2022-10-29T17:28:04.000Z,0
2022-10-29T17:30:49.000Z,0
2022-10-29T17:32:07.000Z,0
2022-10-29T17:33:34.000Z,0
2022-10-29T17:36:18.000Z,0
2022-10-29T17:39:03.000Z,0
2022-10-29T17:44:16.000Z,0
2022-10-29T17:47:00.000Z,0
2022-10-29T17:49:45.000Z,0
2022-10-29T17:55:14.000Z,0
2022-10-29T17:57:59.000Z,0
2022-10-29T17:59:33.000Z,0
2022-10-29T18:00:51.000Z,0
2022-10-29T18:03:35.000Z,0
2022-10-29T18:06:20.000Z,0
2022-10-29T18:09:05.000Z,0
2022-10-29T18:11:49.000Z,0
2022-10-29T18:14:34.000Z,0
2022-10-29T18:19:47.000Z,0
2022-10-29T18:22:31.000Z,0
2022-10-29T18:25:16.000Z,0
2022-10-29T18:26:59.000Z,0
2022-10-29T18:28:17.000Z,0
2022-10-29T18:31:02.000Z,0
2022-10-29T18:33:46.000Z,0
2022-10-29T18:36:31.000Z,0
2022-10-29T18:39:16.000Z,0
2022-10-29T18:42:00.000Z,0
2022-10-29T18:44:45.000Z,0
2022-10-29T18:47:30.000Z,0
2022-10-29T18:50:14.000Z,0
2022-10-29T18:52:59.000Z,0
2022-10-29T18:54:26.000Z,0
2022-10-29T18:55:44.000Z,0
2022-10-29T18:58:28.000Z,0
2022-10-29T19:01:13.000Z,0
2022-10-29T19:03:58.000Z,0
2022-10-29T19:06:42.000Z,0
2022-10-29T19:09:27.000Z,0
2022-10-29T19:12:11.000Z,0
2022-10-29T19:14:56.000Z,0
2022-10-29T19:17:41.000Z,0
2022-10-29T19:20:25.000Z,0
2022-10-29T19:21:52.000Z,0
2022-10-29T19:23:10.000Z,0
2022-10-29T19:25:55.000Z,0
2022-10-29T19:28:39.000Z,0
2022-10-29T19:31:24.000Z,0
2022-10-29T19:34:09.000Z,0
2022-10-29T19:36:53.000Z,0
2022-10-29T19:39:38.000Z,0
2022-10-29T19:42:22.000Z,0
2022-10-29T19:45:07.000Z,0
2022-10-29T19:47:52.000Z,0
2022-10-29T19:49:19.000Z,0
2022-10-29T19:50:36.000Z,0
2022-10-29T19:53:21.000Z,0
2022-10-29T19:56:06.000Z,0
2022-10-29T19:58:50.000Z,0
2022-10-29T20:01:35.000Z,0
2022-10-29T20:04:20.000Z,0
2022-10-29T20:07:04.000Z,0
2022-10-29T20:09:49.000Z,0
2022-10-29T20:12:34.000Z,0
2022-10-29T20:16:45.000Z,0
2022-10-29T20:18:03.000Z,0
2022-10-29T20:20:47.000Z,0
2022-10-29T20:23:32.000Z,0
2022-10-29T20:26:17.000Z,0
2022-10-29T20:29:01.000Z,0
2022-10-29T20:31:46.000Z,0
2022-10-29T20:34:31.000Z,0
2022-10-29T20:37:15.000Z,0
2022-10-29T20:40:00.000Z,0
2022-10-29T20:42:45.000Z,0
2022-10-29T20:44:12.000Z,0
2022-10-29T20:45:29.000Z,0
2022-10-29T20:48:14.000Z,0
2022-10-29T20:50:59.000Z,0
2022-10-29T20:53:43.000Z,0
2022-10-29T20:56:28.000Z,0
2022-10-29T20:59:12.000Z,0
2022-10-29T21:01:57.000Z,0
2022-10-29T21:04:42.000Z,0
2022-10-29T21:07:26.000Z,0
2022-10-29T21:10:11.000Z,0
2022-10-29T21:11:38.000Z,0
2022-10-29T21:12:56.000Z,0
2022-10-29T21:15:40.000Z,0
2022-10-29T21:18:25.000Z,0
2022-10-29T21:21:10.000Z,0
2022-10-29T21:23:54.000Z,0
2022-10-29T21:26:39.000Z,0
2022-10-29T21:29:24.000Z,0
2022-10-29T21:32:08.000Z,0
2022-10-29T21:34:53.000Z,0
2022-10-29T21:37:37.000Z,0
2022-10-29T21:39:04.000Z,0
2022-10-29T21:40:22.000Z,0
2022-10-29T21:43:07.000Z,0
2022-10-29T21:45:51.000Z,0
2022-10-29T21:48:36.000Z,0
2022-10-29T21:51:21.000Z,0
2022-10-29T21:54:05.000Z,0
2022-10-29T21:56:50.000Z,0
2022-10-29T21:59:35.000Z,0
2022-10-29T22:02:19.000Z,0
2022-10-29T22:05:04.000Z,0
2022-10-29T22:06:31.000Z,0
2022-10-29T22:07:49.000Z,0
2022-10-29T22:10:33.000Z,0
2022-10-29T22:13:18.000Z,0
2022-10-29T22:16:02.000Z,0
2022-10-29T22:18:47.000Z,0
2022-10-29T22:21:32.000Z,0
2022-10-29T22:24:16.000Z,0
2022-10-29T22:27:01.000Z,0
2022-10-29T22:29:46.000Z,0
2022-10-29T22:32:30.000Z,0
2022-10-29T22:33:57.000Z,0
2022-10-29T22:35:15.000Z,0
2022-10-29T22:38:00.000Z,0
2022-10-29T22:40:44.000Z,0
2022-10-29T22:43:29.000Z,0
2022-10-29T22:46:14.000Z,0
2022-10-29T22:48:58.000Z,0
2022-10-29T22:51:43.000Z,0
2022-10-29T22:54:27.000Z,0
2022-10-29T22:57:12.000Z,0
2022-10-29T22:59:57.000Z,0
2022-10-29T23:01:24.000Z,0
2022-10-29T23:02:41.000Z,0
2022-10-29T23:08:11.000Z,0
2022-10-29T23:10:55.000Z,0
2022-10-29T23:13:40.000Z,0
2022-10-29T23:16:25.000Z,0
2022-10-29T23:19:09.000Z,0
2022-10-29T23:21:54.000Z,0
2022-10-29T23:24:38.000Z,0
2022-10-29T23:27:23.000Z,0
2022-10-29T23:28:50.000Z,0
2022-10-29T23:30:08.000Z,0
2022-10-29T23:32:52.000Z,0
2022-10-29T23:35:37.000Z,0
2022-10-29T23:38:22.000Z,0
2022-10-29T23:41:06.000Z,0
2022-10-29T23:43:51.000Z,0
2022-10-29T23:46:36.000Z,0
2022-10-29T23:49:20.000Z,0
2022-10-29T23:52:05.000Z,0
2022-10-29T23:54:50.000Z,0
2022-10-29T23:56:16.000Z,0
2022-10-29T23:57:34.000Z,0
